sensor_id;sensor_type;location;lat;lon;timestamp;pressure;altitude;pressure_sealevel;temperature;humidity
32083;BME280;18597;48.328;7.932;2024-03-17T00:00:21;100278.47;;;7.13;100.00
32083;BME280;18597;48.328;7.932;2024-03-17T00:02:47;100274.22;;;7.11;100.00
32083;BME280;18597;48.328;7.932;2024-03-17T00:05:14;100269.19;;;7.20;100.00
32083;BME280;18597;48.328;7.932;2024-03-17T00:07:40;100271.63;;;7.23;100.00
32083;BME280;18597;48.328;7.932;2024-03-17T00:10:07;100271.16;;;7.17;100.00
32083;BME280;18597;48.328;7.932;2024-03-17T00:12:34;100278.00;;;7.21;100.00
32083;BME280;18597;48.328;7.932;2024-03-17T00:15:00;100268.34;;;7.34;100.00
32083;BME280;18597;48.328;7.932;2024-03-17T00:17:25;100275.34;;;7.35;100.00
32083;BME280;18597;48.328;7.932;2024-03-17T00:19:51;100272.59;;;7.37;100.00
32083;BME280;18597;48.328;7.932;2024-03-17T00:22:17;100268.13;;;7.37;100.00
32083;BME280;18597;48.328;7.932;2024-03-17T00:24:43;100265.38;;;7.39;100.00
32083;BME280;18597;48.328;7.932;2024-03-17T00:27:10;100265.19;;;7.42;100.00
32083;BME280;18597;48.328;7.932;2024-03-17T00:29:38;100264.25;;;7.43;100.00
32083;BME280;18597;48.328;7.932;2024-03-17T00:32:05;100263.56;;;7.54;100.00
32083;BME280;18597;48.328;7.932;2024-03-17T00:34:32;100261.84;;;7.53;100.00
32083;BME280;18597;48.328;7.932;2024-03-17T00:36:57;100262.41;;;7.72;100.00
32083;BME280;18597;48.328;7.932;2024-03-17T00:39:25;100255.75;;;7.79;100.00
32083;BME280;18597;48.328;7.932;2024-03-17T00:41:51;100259.63;;;7.88;100.00
32083;BME280;18597;48.328;7.932;2024-03-17T00:44:17;100256.41;;;7.83;100.00
32083;BME280;18597;48.328;7.932;2024-03-17T00:46:43;100256.69;;;7.78;100.00
32083;BME280;18597;48.328;7.932;2024-03-17T00:49:10;100253.47;;;7.73;100.00
32083;BME280;18597;48.328;7.932;2024-03-17T00:51:36;100248.53;;;7.67;100.00
32083;BME280;18597;48.328;7.932;2024-03-17T00:54:02;100248.53;;;7.81;100.00
32083;BME280;18597;48.328;7.932;2024-03-17T00:56:28;100239.94;;;7.90;100.00
32083;BME280;18597;48.328;7.932;2024-03-17T00:58:53;100243.31;;;7.79;100.00
32083;BME280;18597;48.328;7.932;2024-03-17T01:01:19;100231.72;;;7.81;100.00
32083;BME280;18597;48.328;7.932;2024-03-17T01:03:46;100231.72;;;7.81;100.00
32083;BME280;18597;48.328;7.932;2024-03-17T01:06:12;100233.53;;;7.80;100.00
32083;BME280;18597;48.328;7.932;2024-03-17T01:08:39;100227.22;;;7.95;100.00
32083;BME280;18597;48.328;7.932;2024-03-17T01:11:05;100224.75;;;7.78;100.00
32083;BME280;18597;48.328;7.932;2024-03-17T01:13:34;100221.22;;;7.65;100.00
32083;BME280;18597;48.328;7.932;2024-03-17T01:16:03;100218.72;;;7.62;100.00
32083;BME280;18597;48.328;7.932;2024-03-17T01:18:29;100212.38;;;7.64;100.00
32083;BME280;18597;48.328;7.932;2024-03-17T01:20:55;100213.88;;;7.68;100.00
32083;BME280;18597;48.328;7.932;2024-03-17T01:23:21;100209.41;;;7.69;100.00
32083;BME280;18597;48.328;7.932;2024-03-17T01:26:05;100207.81;;;7.66;100.00
32083;BME280;18597;48.328;7.932;2024-03-17T01:28:31;100201.59;;;7.80;100.00
32083;BME280;18597;48.328;7.932;2024-03-17T01:30:58;100197.25;;;7.79;100.00
32083;BME280;18597;48.328;7.932;2024-03-17T01:33:23;100195.81;;;7.73;100.00
32083;BME280;18597;48.328;7.932;2024-03-17T01:35:49;100191.47;;;7.72;100.00
32083;BME280;18597;48.328;7.932;2024-03-17T01:38:15;100200.06;;;7.76;100.00
32083;BME280;18597;48.328;7.932;2024-03-17T01:40:41;100193.81;;;7.77;100.00
32083;BME280;18597;48.328;7.932;2024-03-17T01:43:10;100185.75;;;7.78;100.00
32083;BME280;18597;48.328;7.932;2024-03-17T01:45:37;100184.75;;;7.94;100.00
32083;BME280;18597;48.328;7.932;2024-03-17T01:48:04;100176.50;;;7.84;100.00
32083;BME280;18597;48.328;7.932;2024-03-17T01:50:36;100176.59;;;7.83;100.00
32083;BME280;18597;48.328;7.932;2024-03-17T01:53:05;100173.81;;;7.84;100.00
32083;BME280;18597;48.328;7.932;2024-03-17T01:55:37;100168.78;;;7.94;100.00
32083;BME280;18597;48.328;7.932;2024-03-17T01:58:04;100172.06;;;7.97;100.00
32083;BME280;18597;48.328;7.932;2024-03-17T02:00:36;100166.75;;;7.97;100.00
32083;BME280;18597;48.328;7.932;2024-03-17T02:03:07;100159.50;;;7.99;100.00
32083;BME280;18597;48.328;7.932;2024-03-17T02:05:35;100159.22;;;7.77;100.00
32083;BME280;18597;48.328;7.932;2024-03-17T02:08:05;100157.91;;;7.70;100.00
32083;BME280;18597;48.328;7.932;2024-03-17T02:10:33;100154.84;;;7.76;100.00
32083;BME280;18597;48.328;7.932;2024-03-17T02:13:00;100157.84;;;7.71;100.00
32083;BME280;18597;48.328;7.932;2024-03-17T02:15:26;100150.28;;;7.78;100.00
32083;BME280;18597;48.328;7.932;2024-03-17T02:17:53;100152.88;;;7.79;100.00
32083;BME280;18597;48.328;7.932;2024-03-17T02:20:19;100154.31;;;7.71;100.00
32083;BME280;18597;48.328;7.932;2024-03-17T02:22:45;100157.63;;;7.74;100.00
32083;BME280;18597;48.328;7.932;2024-03-17T02:25:10;100159.88;;;7.81;100.00
32083;BME280;18597;48.328;7.932;2024-03-17T02:27:36;100149.69;;;7.87;100.00
32083;BME280;18597;48.328;7.932;2024-03-17T02:30:04;100148.53;;;7.91;100.00
32083;BME280;18597;48.328;7.932;2024-03-17T02:32:35;100150.56;;;7.88;100.00
32083;BME280;18597;48.328;7.932;2024-03-17T02:35:02;100137.44;;;7.85;100.00
32083;BME280;18597;48.328;7.932;2024-03-17T02:37:28;100142.69;;;7.86;100.00
32083;BME280;18597;48.328;7.932;2024-03-17T02:39:54;100135.94;;;7.81;100.00
32083;BME280;18597;48.328;7.932;2024-03-17T02:42:19;100136.34;;;7.74;100.00
32083;BME280;18597;48.328;7.932;2024-03-17T02:44:45;100136.84;;;7.67;100.00
32083;BME280;18597;48.328;7.932;2024-03-17T02:47:11;100137.81;;;7.66;100.00
32083;BME280;18597;48.328;7.932;2024-03-17T02:49:40;100141.66;;;7.74;100.00
32083;BME280;18597;48.328;7.932;2024-03-17T02:52:10;100144.53;;;7.71;100.00
32083;BME280;18597;48.328;7.932;2024-03-17T02:54:37;100148.56;;;7.64;100.00
32083;BME280;18597;48.328;7.932;2024-03-17T02:57:04;100142.38;;;7.64;100.00
32083;BME280;18597;48.328;7.932;2024-03-17T02:59:32;100137.06;;;7.64;100.00
32083;BME280;18597;48.328;7.932;2024-03-17T03:01:59;100135.25;;;7.64;100.00
32083;BME280;18597;48.328;7.932;2024-03-17T03:04:26;100130.78;;;7.65;100.00
32083;BME280;18597;48.328;7.932;2024-03-17T03:06:52;100122.81;;;7.65;100.00
32083;BME280;18597;48.328;7.932;2024-03-17T03:09:18;100119.81;;;7.69;100.00
32083;BME280;18597;48.328;7.932;2024-03-17T03:11:57;100118.22;;;7.67;100.00
32083;BME280;18597;48.328;7.932;2024-03-17T03:14:23;100120.09;;;7.79;100.00
32083;BME280;18597;48.328;7.932;2024-03-17T03:16:49;100110.31;;;7.79;100.00
32083;BME280;18597;48.328;7.932;2024-03-17T03:19:16;100121.13;;;7.76;100.00
32083;BME280;18597;48.328;7.932;2024-03-17T03:21:42;100118.03;;;7.70;100.00
32083;BME280;18597;48.328;7.932;2024-03-17T03:24:08;100128.31;;;7.62;100.00
32083;BME280;18597;48.328;7.932;2024-03-17T03:26:34;100126.72;;;7.59;100.00
32083;BME280;18597;48.328;7.932;2024-03-17T03:28:59;100119.53;;;7.74;100.00
32083;BME280;18597;48.328;7.932;2024-03-17T03:31:25;100122.84;;;7.77;100.00
32083;BME280;18597;48.328;7.932;2024-03-17T03:33:51;100107.44;;;7.83;100.00
32083;BME280;18597;48.328;7.932;2024-03-17T03:36:17;100113.03;;;7.78;100.00
32083;BME280;18597;48.328;7.932;2024-03-17T03:38:43;100131.38;;;7.83;100.00
32083;BME280;18597;48.328;7.932;2024-03-17T03:41:13;100122.44;;;7.84;100.00
32083;BME280;18597;48.328;7.932;2024-03-17T03:43:39;100123.28;;;7.84;100.00
32083;BME280;18597;48.328;7.932;2024-03-17T03:46:07;100125.41;;;7.79;100.00
32083;BME280;18597;48.328;7.932;2024-03-17T03:48:33;100126.56;;;7.75;100.00
32083;BME280;18597;48.328;7.932;2024-03-17T03:51:05;100129.44;;;7.72;100.00
32083;BME280;18597;48.328;7.932;2024-03-17T03:53:32;100131.28;;;7.57;100.00
32083;BME280;18597;48.328;7.932;2024-03-17T03:55:58;100126.81;;;7.58;100.00
32083;BME280;18597;48.328;7.932;2024-03-17T03:58:27;100123.31;;;7.57;100.00
32083;BME280;18597;48.328;7.932;2024-03-17T04:00:55;100118.63;;;7.61;100.00
32083;BME280;18597;48.328;7.932;2024-03-17T04:03:22;100120.53;;;7.59;100.00
32083;BME280;18597;48.328;7.932;2024-03-17T04:05:48;100125.81;;;7.73;100.00
32083;BME280;18597;48.328;7.932;2024-03-17T04:08:14;100117.84;;;7.73;100.00
32083;BME280;18597;48.328;7.932;2024-03-17T04:10:40;100124.47;;;7.80;100.00
32083;BME280;18597;48.328;7.932;2024-03-17T04:13:05;100124.97;;;7.72;100.00
32083;BME280;18597;48.328;7.932;2024-03-17T04:15:31;100117.50;;;7.65;100.00
32083;BME280;18597;48.328;7.932;2024-03-17T04:17:57;100123.66;;;7.65;100.00
32083;BME280;18597;48.328;7.932;2024-03-17T04:20:23;100122.59;;;7.68;100.00
32083;BME280;18597;48.328;7.932;2024-03-17T04:22:49;100122.59;;;7.68;100.00
32083;BME280;18597;48.328;7.932;2024-03-17T04:25:14;100121.09;;;7.64;100.00
32083;BME280;18597;48.328;7.932;2024-03-17T04:27:41;100124.06;;;7.59;100.00
32083;BME280;18597;48.328;7.932;2024-03-17T04:30:08;100127.66;;;7.58;100.00
32083;BME280;18597;48.328;7.932;2024-03-17T04:32:37;100125.16;;;7.42;100.00
32083;BME280;18597;48.328;7.932;2024-03-17T04:35:03;100124.88;;;7.33;100.00
32083;BME280;18597;48.328;7.932;2024-03-17T04:37:29;100115.88;;;7.35;100.00
32083;BME280;18597;48.328;7.932;2024-03-17T04:39:55;100120.88;;;7.40;100.00
32083;BME280;18597;48.328;7.932;2024-03-17T04:42:23;100122.63;;;7.27;100.00
32083;BME280;18597;48.328;7.932;2024-03-17T04:44:49;100125.56;;;7.36;100.00
32083;BME280;18597;48.328;7.932;2024-03-17T04:47:14;100126.00;;;7.43;100.00
32083;BME280;18597;48.328;7.932;2024-03-17T04:49:43;100122.72;;;7.25;100.00
32083;BME280;18597;48.328;7.932;2024-03-17T04:52:11;100121.56;;;7.29;100.00
32083;BME280;18597;48.328;7.932;2024-03-17T04:54:37;100128.06;;;7.11;100.00
32083;BME280;18597;48.328;7.932;2024-03-17T04:57:03;100114.22;;;7.06;100.00
32083;BME280;18597;48.328;7.932;2024-03-17T04:59:33;100117.75;;;6.92;100.00
32083;BME280;18597;48.328;7.932;2024-03-17T05:01:59;100123.53;;;6.99;100.00
32083;BME280;18597;48.328;7.932;2024-03-17T05:04:24;100125.22;;;6.85;100.00
32083;BME280;18597;48.328;7.932;2024-03-17T05:06:50;100121.25;;;6.78;100.00
32083;BME280;18597;48.328;7.932;2024-03-17T05:09:17;100116.03;;;6.77;100.00
32083;BME280;18597;48.328;7.932;2024-03-17T05:11:43;100114.34;;;6.76;100.00
32083;BME280;18597;48.328;7.932;2024-03-17T05:14:09;100113.75;;;6.71;100.00
32083;BME280;18597;48.328;7.932;2024-03-17T05:16:35;100102.50;;;6.67;100.00
32083;BME280;18597;48.328;7.932;2024-03-17T05:19:01;100117.00;;;6.61;100.00
32083;BME280;18597;48.328;7.932;2024-03-17T05:21:27;100121.69;;;6.42;100.00
32083;BME280;18597;48.328;7.932;2024-03-17T05:23:57;100113.09;;;6.38;100.00
32083;BME280;18597;48.328;7.932;2024-03-17T05:26:24;100110.63;;;6.35;100.00
32083;BME280;18597;48.328;7.932;2024-03-17T05:28:50;100117.41;;;6.25;100.00
32083;BME280;18597;48.328;7.932;2024-03-17T05:31:16;100116.47;;;6.26;100.00
32083;BME280;18597;48.328;7.932;2024-03-17T05:33:44;100118.19;;;6.27;100.00
32083;BME280;18597;48.328;7.932;2024-03-17T05:36:10;100121.31;;;6.20;100.00
32083;BME280;18597;48.328;7.932;2024-03-17T05:38:36;100126.63;;;6.20;100.00
32083;BME280;18597;48.328;7.932;2024-03-17T05:41:05;100126.25;;;5.96;100.00
32083;BME280;18597;48.328;7.932;2024-03-17T05:43:33;100128.38;;;6.05;100.00
32083;BME280;18597;48.328;7.932;2024-03-17T05:46:03;100130.63;;;6.11;100.00
32083;BME280;18597;48.328;7.932;2024-03-17T05:48:32;100126.88;;;6.15;100.00
32083;BME280;18597;48.328;7.932;2024-03-17T05:51:00;100129.78;;;6.10;100.00
32083;BME280;18597;48.328;7.932;2024-03-17T05:53:26;100132.78;;;6.20;100.00
32083;BME280;18597;48.328;7.932;2024-03-17T05:55:52;100130.97;;;6.21;100.00
32083;BME280;18597;48.328;7.932;2024-03-17T05:58:18;100138.09;;;6.20;100.00
32083;BME280;18597;48.328;7.932;2024-03-17T06:00:44;100141.75;;;6.18;100.00
32083;BME280;18597;48.328;7.932;2024-03-17T06:03:10;100138.97;;;6.35;100.00
32083;BME280;18597;48.328;7.932;2024-03-17T06:05:38;100135.66;;;6.46;100.00
32083;BME280;18597;48.328;7.932;2024-03-17T06:08:05;100140.69;;;6.50;100.00
32083;BME280;18597;48.328;7.932;2024-03-17T06:10:32;100148.94;;;6.60;100.00
32083;BME280;18597;48.328;7.932;2024-03-17T06:12:59;100142.09;;;6.56;100.00
32083;BME280;18597;48.328;7.932;2024-03-17T06:15:25;100131.50;;;6.70;100.00
32083;BME280;18597;48.328;7.932;2024-03-17T06:17:53;100133.56;;;6.79;100.00
32083;BME280;18597;48.328;7.932;2024-03-17T06:20:20;100133.56;;;6.79;100.00
32083;BME280;18597;48.328;7.932;2024-03-17T06:22:47;100128.75;;;6.86;100.00
32083;BME280;18597;48.328;7.932;2024-03-17T06:25:13;100127.38;;;7.21;100.00
32083;BME280;18597;48.328;7.932;2024-03-17T06:27:39;100130.41;;;7.71;100.00
32083;BME280;18597;48.328;7.932;2024-03-17T06:30:05;100121.53;;;8.50;100.00
32083;BME280;18597;48.328;7.932;2024-03-17T06:32:33;100126.59;;;9.16;100.00
32083;BME280;18597;48.328;7.932;2024-03-17T06:35:01;100116.25;;;9.49;100.00
32083;BME280;18597;48.328;7.932;2024-03-17T06:37:27;100120.88;;;9.82;100.00
32083;BME280;18597;48.328;7.932;2024-03-17T06:39:53;100119.56;;;9.76;100.00
32083;BME280;18597;48.328;7.932;2024-03-17T06:42:19;100114.25;;;9.39;100.00
32083;BME280;18597;48.328;7.932;2024-03-17T06:44:45;100126.59;;;9.16;100.00
32083;BME280;18597;48.328;7.932;2024-03-17T06:47:11;100128.53;;;8.89;100.00
32083;BME280;18597;48.328;7.932;2024-03-17T06:49:37;100125.69;;;8.67;100.00
32083;BME280;18597;48.328;7.932;2024-03-17T06:52:03;100123.34;;;8.62;100.00
32083;BME280;18597;48.328;7.932;2024-03-17T06:54:28;100126.22;;;8.59;100.00
32083;BME280;18597;48.328;7.932;2024-03-17T06:56:54;100121.72;;;8.59;100.00
32083;BME280;18597;48.328;7.932;2024-03-17T06:59:20;100128.97;;;8.57;100.00
32083;BME280;18597;48.328;7.932;2024-03-17T07:01:47;100122.38;;;8.63;100.00
32083;BME280;18597;48.328;7.932;2024-03-17T07:04:13;100128.97;;;8.83;100.00
32083;BME280;18597;48.328;7.932;2024-03-17T07:06:39;100121.28;;;8.91;100.00
32083;BME280;18597;48.328;7.932;2024-03-17T07:09:05;100122.94;;;9.17;100.00
32083;BME280;18597;48.328;7.932;2024-03-17T07:11:31;100116.31;;;9.60;100.00
32083;BME280;18597;48.328;7.932;2024-03-17T07:13:57;100124.00;;;10.23;100.00
32083;BME280;18597;48.328;7.932;2024-03-17T07:16:23;100124.63;;;11.61;100.00
32083;BME280;18597;48.328;7.932;2024-03-17T07:18:52;100125.66;;;13.06;100.00
32083;BME280;18597;48.328;7.932;2024-03-17T07:21:18;100124.47;;;14.38;100.00
32083;BME280;18597;48.328;7.932;2024-03-17T07:23:44;100123.94;;;15.28;93.15
32083;BME280;18597;48.328;7.932;2024-03-17T07:26:10;100118.84;;;15.98;85.99
32083;BME280;18597;48.328;7.932;2024-03-17T07:28:36;100122.38;;;16.34;79.32
32083;BME280;18597;48.328;7.932;2024-03-17T07:31:08;100137.44;;;16.62;76.71
32083;BME280;18597;48.328;7.932;2024-03-17T07:33:35;100136.06;;;16.84;73.04
32083;BME280;18597;48.328;7.932;2024-03-17T07:36:01;100133.19;;;16.78;70.17
32083;BME280;18597;48.328;7.932;2024-03-17T07:38:29;100130.25;;;16.97;68.39
32083;BME280;18597;48.328;7.932;2024-03-17T07:41:00;100121.50;;;18.28;61.02
32083;BME280;18597;48.328;7.932;2024-03-17T07:43:27;100107.19;;;20.09;53.82
32083;BME280;18597;48.328;7.932;2024-03-17T07:46:01;100104.25;;;21.24;48.43
32083;BME280;18597;48.328;7.932;2024-03-17T07:48:28;100102.28;;;21.69;46.86
32083;BME280;18597;48.328;7.932;2024-03-17T07:50:57;100101.94;;;22.29;44.10
32083;BME280;18597;48.328;7.932;2024-03-17T07:53:23;100104.31;;;22.18;44.61
32083;BME280;18597;48.328;7.932;2024-03-17T07:58:44;100104.13;;;19.19;51.27
32083;BME280;18597;48.328;7.932;2024-03-17T08:01:12;100100.41;;;18.08;56.85
32083;BME280;18597;48.328;7.932;2024-03-17T08:03:41;100116.00;;;17.21;64.52
32083;BME280;18597;48.328;7.932;2024-03-17T08:06:10;100110.00;;;16.49;70.63
32083;BME280;18597;48.328;7.932;2024-03-17T08:08:37;100113.44;;;15.98;74.10
32083;BME280;18597;48.328;7.932;2024-03-17T08:11:06;100114.47;;;15.51;80.07
32083;BME280;18597;48.328;7.932;2024-03-17T08:13:32;100111.91;;;15.22;84.99
32083;BME280;18597;48.328;7.932;2024-03-17T08:16:03;100107.91;;;15.81;84.08
32083;BME280;18597;48.328;7.932;2024-03-17T08:18:29;100113.81;;;17.16;72.21
32083;BME280;18597;48.328;7.932;2024-03-17T08:20:55;100093.97;;;17.92;63.31
32083;BME280;18597;48.328;7.932;2024-03-17T08:23:22;100090.75;;;18.13;61.19
32083;BME280;18597;48.328;7.932;2024-03-17T08:25:54;100095.13;;;17.90;62.19
32083;BME280;18597;48.328;7.932;2024-03-17T08:28:21;100095.22;;;17.56;63.88
32083;BME280;18597;48.328;7.932;2024-03-17T08:31:03;100099.63;;;17.23;65.75
32083;BME280;18597;48.328;7.932;2024-03-17T08:33:30;100104.25;;;16.96;68.72
32083;BME280;18597;48.328;7.932;2024-03-17T08:36:01;100100.16;;;16.66;71.46
32083;BME280;18597;48.328;7.932;2024-03-17T08:38:28;100098.69;;;16.46;74.34
32083;BME280;18597;48.328;7.932;2024-03-17T08:40:56;100096.69;;;16.30;76.12
32083;BME280;18597;48.328;7.932;2024-03-17T08:43:22;100095.47;;;16.24;78.08
32083;BME280;18597;48.328;7.932;2024-03-17T08:46:07;100090.72;;;16.18;80.61
32083;BME280;18597;48.328;7.932;2024-03-17T08:48:35;100089.34;;;16.14;82.00
32083;BME280;18597;48.328;7.932;2024-03-17T08:51:03;100089.19;;;15.98;83.61
32083;BME280;18597;48.328;7.932;2024-03-17T08:53:29;100084.06;;;15.59;87.98
32083;BME280;18597;48.328;7.932;2024-03-17T08:55:56;100080.47;;;15.50;89.52
32083;BME280;18597;48.328;7.932;2024-03-17T08:58:22;100083.28;;;15.49;90.51
32083;BME280;18597;48.328;7.932;2024-03-17T09:00:48;100083.78;;;15.62;90.25
32083;BME280;18597;48.328;7.932;2024-03-17T09:03:14;100085.69;;;15.79;88.82
32083;BME280;18597;48.328;7.932;2024-03-17T09:05:42;100096.13;;;15.82;89.21
32083;BME280;18597;48.328;7.932;2024-03-17T09:08:16;100096.44;;;15.79;88.69
32083;BME280;18597;48.328;7.932;2024-03-17T09:10:44;100094.03;;;15.76;90.29
32083;BME280;18597;48.328;7.932;2024-03-17T09:13:14;100095.38;;;15.72;88.99
32083;BME280;18597;48.328;7.932;2024-03-17T09:15:50;100092.44;;;15.56;91.07
32083;BME280;18597;48.328;7.932;2024-03-17T09:18:16;100094.69;;;15.61;92.79
32083;BME280;18597;48.328;7.932;2024-03-17T09:20:42;100096.06;;;15.47;93.90
32083;BME280;18597;48.328;7.932;2024-03-17T09:23:08;100087.94;;;15.29;95.90
32083;BME280;18597;48.328;7.932;2024-03-17T09:25:34;100096.00;;;15.02;98.76
32083;BME280;18597;48.328;7.932;2024-03-17T09:28:00;100088.84;;;15.20;98.22
32083;BME280;18597;48.328;7.932;2024-03-17T09:30:26;100084.34;;;15.38;96.19
32083;BME280;18597;48.328;7.932;2024-03-17T09:32:51;100091.38;;;15.21;97.08
32083;BME280;18597;48.328;7.932;2024-03-17T09:35:17;100083.53;;;15.55;95.49
32083;BME280;18597;48.328;7.932;2024-03-17T09:37:43;100083.66;;;15.81;93.42
32083;BME280;18597;48.328;7.932;2024-03-17T09:40:14;100085.25;;;15.92;91.05
32083;BME280;18597;48.328;7.932;2024-03-17T09:42:41;100087.72;;;16.21;88.67
32083;BME280;18597;48.328;7.932;2024-03-17T09:45:10;100088.44;;;16.49;83.68
32083;BME280;18597;48.328;7.932;2024-03-17T09:47:36;100086.25;;;16.71;81.23
32083;BME280;18597;48.328;7.932;2024-03-17T09:50:03;100079.50;;;16.49;82.83
32083;BME280;18597;48.328;7.932;2024-03-17T09:52:30;100067.94;;;16.38;82.98
32083;BME280;18597;48.328;7.932;2024-03-17T09:55:01;100064.84;;;16.25;83.39
32083;BME280;18597;48.328;7.932;2024-03-17T09:57:36;100062.78;;;16.45;84.52
32083;BME280;18597;48.328;7.932;2024-03-17T10:00:10;100072.31;;;16.57;82.80
32083;BME280;18597;48.328;7.932;2024-03-17T10:02:44;100070.28;;;16.59;81.30
32083;BME280;18597;48.328;7.932;2024-03-17T10:05:22;100079.03;;;16.79;79.71
32083;BME280;18597;48.328;7.932;2024-03-17T10:07:50;100080.13;;;16.95;77.10
32083;BME280;18597;48.328;7.932;2024-03-17T10:10:17;100080.03;;;17.12;75.65
32083;BME280;18597;48.328;7.932;2024-03-17T10:12:50;100083.28;;;17.16;73.15
32083;BME280;18597;48.328;7.932;2024-03-17T10:15:18;100084.97;;;17.17;72.93
32083;BME280;18597;48.328;7.932;2024-03-17T10:17:45;100086.06;;;17.06;74.61
32083;BME280;18597;48.328;7.932;2024-03-17T10:20:20;100088.31;;;17.11;73.93
32083;BME280;18597;48.328;7.932;2024-03-17T10:23:06;100085.75;;;17.01;76.68
32083;BME280;18597;48.328;7.932;2024-03-17T10:25:39;100077.63;;;17.01;76.88
32083;BME280;18597;48.328;7.932;2024-03-17T10:28:14;100078.81;;;17.07;75.95
32083;BME280;18597;48.328;7.932;2024-03-17T10:30:41;100076.47;;;17.04;75.28
32083;BME280;18597;48.328;7.932;2024-03-17T10:33:22;100068.31;;;16.96;75.71
32083;BME280;18597;48.328;7.932;2024-03-17T10:35:50;100073.19;;;16.92;78.11
32083;BME280;18597;48.328;7.932;2024-03-17T10:38:23;100077.50;;;17.11;75.82
32083;BME280;18597;48.328;7.932;2024-03-17T10:40:49;100074.97;;;17.09;75.37
32083;BME280;18597;48.328;7.932;2024-03-17T10:43:15;100070.53;;;17.00;75.50
32083;BME280;18597;48.328;7.932;2024-03-17T10:45:42;100069.44;;;16.85;76.52
32083;BME280;18597;48.328;7.932;2024-03-17T10:48:09;100067.50;;;16.69;78.17
32083;BME280;18597;48.328;7.932;2024-03-17T10:50:41;100067.91;;;16.82;77.55
32083;BME280;18597;48.328;7.932;2024-03-17T10:53:07;100061.13;;;17.12;76.24
32083;BME280;18597;48.328;7.932;2024-03-17T10:55:45;100055.78;;;17.29;73.04
32083;BME280;18597;48.328;7.932;2024-03-17T11:00:58;100063.78;;;17.46;73.17
32083;BME280;18597;48.328;7.932;2024-03-17T11:03:24;100066.59;;;17.29;74.57
32083;BME280;18597;48.328;7.932;2024-03-17T11:05:51;100052.28;;;17.36;72.54
32083;BME280;18597;48.328;7.932;2024-03-17T11:08:17;100058.19;;;17.40;72.58
32083;BME280;18597;48.328;7.932;2024-03-17T11:10:52;100059.97;;;17.82;70.21
32083;BME280;18597;48.328;7.932;2024-03-17T11:13:26;100061.34;;;18.02;67.41
32083;BME280;18597;48.328;7.932;2024-03-17T11:15:53;100054.25;;;18.09;66.15
32083;BME280;18597;48.328;7.932;2024-03-17T11:21:01;100058.41;;;18.77;63.07
32083;BME280;18597;48.328;7.932;2024-03-17T11:23:33;100047.28;;;19.11;59.26
32083;BME280;18597;48.328;7.932;2024-03-17T11:26:00;100054.56;;;19.10;58.37
32083;BME280;18597;48.328;7.932;2024-03-17T11:28:46;100047.47;;;19.09;58.33
32083;BME280;18597;48.328;7.932;2024-03-17T11:31:37;100055.16;;;19.29;58.17
32083;BME280;18597;48.328;7.932;2024-03-17T11:34:38;100048.50;;;19.39;56.59
32083;BME280;18597;48.328;7.932;2024-03-17T11:36:54;100043.97;;;19.63;54.72
32083;BME280;18597;48.328;7.932;2024-03-17T11:39:20;100039.78;;;19.52;55.67
32083;BME280;18597;48.328;7.932;2024-03-17T11:41:51;100040.59;;;19.30;56.82
32083;BME280;18597;48.328;7.932;2024-03-17T11:44:24;100039.69;;;18.67;59.21
32083;BME280;18597;48.328;7.932;2024-03-17T11:46:58;100042.56;;;18.41;60.53
32083;BME280;18597;48.328;7.932;2024-03-17T11:49:31;100036.50;;;18.39;62.83
32083;BME280;18597;48.328;7.932;2024-03-17T11:52:01;100036.13;;;18.42;61.20
32083;BME280;18597;48.328;7.932;2024-03-17T11:54:32;100026.13;;;18.59;63.70
32083;BME280;18597;48.328;7.932;2024-03-17T11:57:04;100027.31;;;18.56;61.95
32083;BME280;18597;48.328;7.932;2024-03-17T11:59:32;100031.56;;;18.43;63.46
32083;BME280;18597;48.328;7.932;2024-03-17T12:02:00;100028.72;;;18.20;62.38
32083;BME280;18597;48.328;7.932;2024-03-17T12:04:26;100033.47;;;18.10;63.26
32083;BME280;18597;48.328;7.932;2024-03-17T12:06:55;100033.66;;;18.08;64.83
32083;BME280;18597;48.328;7.932;2024-03-17T12:09:29;100028.41;;;18.07;63.88
32083;BME280;18597;48.328;7.932;2024-03-17T12:12:06;100024.31;;;18.51;62.05
32083;BME280;18597;48.328;7.932;2024-03-17T12:14:35;100017.53;;;18.47;60.12
32083;BME280;18597;48.328;7.932;2024-03-17T12:17:04;100017.34;;;18.49;60.04
32083;BME280;18597;48.328;7.932;2024-03-17T12:19:31;100013.16;;;18.38;59.96
32083;BME280;18597;48.328;7.932;2024-03-17T12:21:58;100013.97;;;18.55;60.10
32083;BME280;18597;48.328;7.932;2024-03-17T12:24:28;100013.28;;;18.69;59.99
32083;BME280;18597;48.328;7.932;2024-03-17T12:26:56;100008.03;;;18.68;59.78
32083;BME280;18597;48.328;7.932;2024-03-17T12:29:42;100012.19;;;18.23;59.91
32083;BME280;18597;48.328;7.932;2024-03-17T12:32:19;100011.19;;;17.91;61.21
32083;BME280;18597;48.328;7.932;2024-03-17T12:34:49;100011.28;;;17.57;64.49
32083;BME280;18597;48.328;7.932;2024-03-17T12:37:19;100009.41;;;17.41;66.68
32083;BME280;18597;48.328;7.932;2024-03-17T12:39:45;100005.19;;;17.39;66.50
32083;BME280;18597;48.328;7.932;2024-03-17T12:42:19;99992.53;;;17.31;67.58
32083;BME280;18597;48.328;7.932;2024-03-17T12:44:54;100001.09;;;17.18;68.09
32083;BME280;18597;48.328;7.932;2024-03-17T12:47:24;99993.22;;;17.41;67.79
32083;BME280;18597;48.328;7.932;2024-03-17T12:49:54;99996.47;;;17.69;65.30
32083;BME280;18597;48.328;7.932;2024-03-17T12:52:31;99988.88;;;17.73;65.02
32083;BME280;18597;48.328;7.932;2024-03-17T12:55:04;99991.06;;;17.94;64.03
32083;BME280;18597;48.328;7.932;2024-03-17T12:57:52;99983.81;;;18.02;62.81
32083;BME280;18597;48.328;7.932;2024-03-17T13:00:38;99985.16;;;17.74;63.95
32083;BME280;18597;48.328;7.932;2024-03-17T13:03:06;99990.53;;;17.58;64.22